Time;durP1;ratioP1;P1;durP2;ratioP2;P2;SDS_P1;SDS_P2;PMS_P1;PMS_P2;Temp;Humidity;BMP_temperature;BMP_pressure;BME280_temperature;BME280_humidity;BME280_pressure;Samples;Min_cycle;Max_cycle;Signal;HPM_P1;HPM_P2
2023/07/07 00:01:04;;;;;;;2.85;2.03;;;25.70;44.50;;;;;;5023834;28;94877;-96
2023/07/07 00:03:30;;;;;;;2.42;1.80;;;25.70;44.40;;;;;;5027868;28;92873;-96
2023/07/07 00:05:56;;;;;;;2.42;2.13;;;25.70;44.50;;;;;;5021568;28;92609;-94
2023/07/07 00:08:26;;;;;;;3.00;2.10;;;25.60;44.50;;;;;;5024504;28;95323;-96
2023/07/07 00:10:52;;;;;;;2.58;1.88;;;25.70;44.50;;;;;;5023863;28;92609;-92
2023/07/07 00:13:20;;;;;;;2.33;2.00;;;25.60;44.50;;;;;;5018116;28;92456;-96
2023/07/07 00:15:46;;;;;;;2.50;1.77;;;25.70;44.50;;;;;;5019719;28;91853;-96
2023/07/07 00:18:26;;;;;;;2.85;2.10;;;25.70;44.40;;;;;;5022871;28;93536;-96
2023/07/07 00:20:55;;;;;;;3.22;1.83;;;25.70;44.30;;;;;;5019111;28;94549;-95
2023/07/07 00:23:21;;;;;;;2.95;2.13;;;25.70;44.30;;;;;;5023089;28;91982;-96
2023/07/07 00:26:00;;;;;;;3.17;2.20;;;25.60;44.30;;;;;;5000845;28;92061;-93
2023/07/07 00:28:26;;;;;;;1.95;1.65;;;25.60;44.40;;;;;;5019584;28;93225;-96
2023/07/07 00:30:52;;;;;;;2.65;2.30;;;25.60;44.60;;;;;;5017767;28;94993;-95
2023/07/07 00:33:17;;;;;;;2.75;1.90;;;25.60;44.40;;;;;;5019860;28;91916;-96
2023/07/07 00:35:47;;;;;;;2.60;1.95;;;25.60;44.50;;;;;;5017344;28;92020;-96
2023/07/07 00:38:13;;;;;;;2.28;1.73;;;25.70;44.60;;;;;;5018227;28;94254;-96
2023/07/07 00:40:38;;;;;;;2.55;1.88;;;25.60;44.50;;;;;;5017465;28;94841;-93
2023/07/07 00:43:15;;;;;;;2.70;1.95;;;25.60;44.60;;;;;;5017877;28;92214;-96
2023/07/07 00:45:40;;;;;;;2.08;1.75;;;25.70;44.40;;;;;;5019979;28;91723;-95
2023/07/07 00:48:14;;;;;;;3.22;2.00;;;25.70;44.40;;;;;;5019823;28;95635;-96
2023/07/07 00:50:48;;;;;;;2.75;1.98;;;25.70;44.20;;;;;;5020374;28;94254;-96
2023/07/07 00:53:14;;;;;;;3.08;2.00;;;25.70;44.20;;;;;;5020625;28;93968;-95
2023/07/07 00:55:48;;;;;;;3.03;2.08;;;25.80;44.40;;;;;;5020178;28;92402;-95
2023/07/07 00:58:17;;;;;;;2.28;1.60;;;25.70;44.30;;;;;;5021591;28;92805;-96
2023/07/07 01:00:47;;;;;;;3.33;2.08;;;25.70;44.20;;;;;;5035787;28;95695;-93
2023/07/07 01:03:22;;;;;;;2.20;1.67;;;25.70;44.20;;;;;;5023744;28;92043;-93
2023/07/07 01:05:49;;;;;;;2.45;2.10;;;25.80;44.20;;;;;;5022673;28;92281;-96
2023/07/07 01:08:16;;;;;;;2.15;1.92;;;25.70;43.90;;;;;;5022367;28;92625;-96
2023/07/07 01:10:42;;;;;;;2.50;2.10;;;25.70;44.20;;;;;;5020745;28;93175;-96
2023/07/07 01:13:08;;;;;;;2.40;1.77;;;25.80;44.00;;;;;;5020412;28;92549;-93
2023/07/07 01:15:38;;;;;;;2.30;2.00;;;25.70;44.10;;;;;;5020194;28;92479;-95
2023/07/07 01:18:20;;;;;;;2.67;2.05;;;25.70;44.10;;;;;;5019501;28;100186;-95
2023/07/07 01:21:01;;;;;;;2.40;1.90;;;25.70;44.00;;;;;;5021290;28;93458;-96
2023/07/07 01:24:01;;;;;;;2.15;1.90;;;25.70;44.20;;;;;;5021027;28;92027;-96
2023/07/07 01:26:29;;;;;;;2.00;1.83;;;25.70;44.00;;;;;;5019675;28;92488;-96
2023/07/07 01:29:04;;;;;;;2.00;1.75;;;25.60;44.10;;;;;;5018781;28;95560;-95
2023/07/07 01:31:42;;;;;;;1.80;1.60;;;25.60;44.20;;;;;;5019084;28;95748;-96
2023/07/07 01:34:12;;;;;;;2.55;2.13;;;25.70;44.20;;;;;;5021192;28;92738;-96
2023/07/07 01:36:38;;;;;;;2.15;1.55;;;25.60;44.00;;;;;;5023709;28;91554;-96
2023/07/07 01:39:04;;;;;;;2.88;1.83;;;25.70;44.10;;;;;;5023006;28;93584;-90
2023/07/07 01:42:06;;;;;;;2.47;1.80;;;25.70;44.00;;;;;;5021361;28;95742;-96
2023/07/07 01:44:44;;;;;;;2.67;2.05;;;25.70;44.00;;;;;;5020997;28;93141;-96
2023/07/07 01:47:18;;;;;;;2.00;1.77;;;25.70;43.90;;;;;;5022484;28;92249;-96
2023/07/07 01:49:50;;;;;;;2.25;1.88;;;25.70;44.00;;;;;;5022153;28;93775;-96
2023/07/07 01:52:37;;;;;;;2.58;1.50;;;25.70;44.00;;;;;;5021879;28;93475;-96
2023/07/07 01:55:10;;;;;;;2.70;2.00;;;25.70;43.80;;;;;;5035905;27;92537;-96
2023/07/07 01:57:39;;;;;;;2.13;1.60;;;25.70;44.00;;;;;;5019410;28;92492;-93
2023/07/07 02:00:06;;;;;;;2.10;1.67;;;25.60;44.00;;;;;;5037041;28;94447;-93
2023/07/07 02:02:32;;;;;;;2.58;2.08;;;25.60;44.00;;;;;;5003116;28;94550;-96
2023/07/07 02:04:57;;;;;;;2.03;1.83;;;25.60;44.00;;;;;;5022139;28;92910;-96
2023/07/07 02:07:23;;;;;;;1.65;1.55;;;25.70;43.90;;;;;;5018265;28;92065;-95
2023/07/07 02:09:48;;;;;;;2.10;1.90;;;25.70;44.10;;;;;;5022508;28;94240;-96
2023/07/07 02:12:14;;;;;;;1.80;1.45;;;25.70;43.90;;;;;;5021307;28;94581;-96
2023/07/07 02:14:40;;;;;;;1.80;1.58;;;25.70;43.90;;;;;;5020515;28;92123;-96
2023/07/07 02:17:05;;;;;;;1.85;1.65;;;25.70;43.90;;;;;;5023712;28;91868;-96
2023/07/07 02:19:31;;;;;;;1.80;1.70;;;25.70;44.00;;;;;;5019517;28;95860;-96
2023/07/07 02:21:57;;;;;;;2.10;1.90;;;25.70;43.90;;;;;;5017943;28;94418;-94
2023/07/07 02:24:22;;;;;;;3.90;2.20;;;25.80;43.80;;;;;;5006454;28;92495;-96
2023/07/07 02:26:50;;;;;;;2.17;1.90;;;25.70;43.70;;;;;;5020960;28;91748;-96
2023/07/07 02:29:16;;;;;;;1.98;1.77;;;25.60;44.20;;;;;;5017948;28;95289;-96
2023/07/07 02:31:43;;;;;;;2.30;1.80;;;25.70;44.10;;;;;;5020146;28;94255;-96
2023/07/07 02:34:10;;;;;;;2.33;2.13;;;25.70;44.10;;;;;;5020493;28;93141;-96
2023/07/07 02:36:36;;;;;;;1.95;1.65;;;25.60;44.60;;;;;;5018267;28;91928;-96
2023/07/07 02:39:03;;;;;;;3.65;1.98;;;25.60;44.10;;;;;;5024350;28;93047;-96
2023/07/07 02:41:28;;;;;;;2.10;1.80;;;25.60;44.20;;;;;;5019116;28;95072;-96
2023/07/07 02:43:54;;;;;;;2.50;2.00;;;25.60;44.10;;;;;;5020397;28;92259;-94
2023/07/07 02:46:20;;;;;;;1.85;1.58;;;25.50;44.20;;;;;;5020866;28;92011;-96
2023/07/07 02:48:45;;;;;;;1.92;1.60;;;25.60;44.10;;;;;;5023376;28;92023;-96
2023/07/07 02:51:11;;;;;;;2.72;1.58;;;25.60;44.00;;;;;;5023061;28;93021;-96
2023/07/07 02:53:37;;;;;;;1.92;1.60;;;25.70;43.90;;;;;;5004724;28;92249;-94
2023/07/07 02:56:04;;;;;;;1.83;1.73;;;25.60;44.00;;;;;;5019653;28;92499;-92
2023/07/07 02:58:30;;;;;;;2.58;1.92;;;25.60;43.80;;;;;;5016918;28;96173;-96
2023/07/07 03:01:10;;;;;;;2.03;1.70;;;25.60;44.00;;;;;;5018165;28;93608;-96
2023/07/07 03:03:38;;;;;;;2.58;1.80;;;25.50;44.00;;;;;;5016131;28;92326;-91
2023/07/07 03:06:06;;;;;;;2.63;1.83;;;25.50;44.30;;;;;;5018270;28;92046;-96
2023/07/07 03:08:31;;;;;;;2.37;1.73;;;25.50;44.30;;;;;;5019826;28;92835;-96
2023/07/07 03:10:57;;;;;;;2.00;1.80;;;25.40;44.30;;;;;;5020290;28;96031;-96
2023/07/07 03:13:23;;;;;;;3.35;2.10;;;25.40;44.30;;;;;;5001271;28;92271;-96
2023/07/07 03:15:48;;;;;;;1.50;1.40;;;25.40;44.30;;;;;;5018471;28;91288;-96
2023/07/07 03:18:14;;;;;;;2.03;1.63;;;25.40;44.30;;;;;;5016779;28;94385;-96
2023/07/07 03:20:49;;;;;;;1.83;1.73;;;25.40;44.20;;;;;;5017278;28;95270;-94
2023/07/07 03:23:15;;;;;;;1.83;1.48;;;25.30;44.40;;;;;;5016252;28;93291;-96
2023/07/07 03:25:41;;;;;;;1.90;1.73;;;25.30;44.40;;;;;;5014039;28;92021;-93
2023/07/07 03:28:07;;;;;;;2.17;1.95;;;25.30;44.50;;;;;;5012851;28;95547;-96
2023/07/07 03:30:34;;;;;;;2.17;1.67;;;25.30;44.40;;;;;;5016103;28;92247;-96
2023/07/07 03:33:00;;;;;;;1.85;1.63;;;25.30;44.50;;;;;;5013447;28;92437;-96
2023/07/07 03:35:26;;;;;;;1.85;1.50;;;25.30;44.50;;;;;;5014343;28;92375;-96
2023/07/07 03:37:52;;;;;;;1.75;1.60;;;25.40;44.60;;;;;;5013243;28;95684;-96
2023/07/07 03:40:17;;;;;;;1.58;1.48;;;25.30;44.40;;;;;;5014636;28;94301;-96
2023/07/07 03:42:43;;;;;;;2.80;1.80;;;25.30;44.50;;;;;;5018350;28;91980;-96
2023/07/07 03:45:10;;;;;;;1.88;1.67;;;25.40;44.40;;;;;;5016442;28;92383;-96
2023/07/07 03:47:35;;;;;;;2.10;1.63;;;25.40;44.30;;;;;;5015915;28;96415;-96
2023/07/07 03:50:01;;;;;;;2.28;1.95;;;25.40;44.20;;;;;;5025893;22;93714;-90
2023/07/07 03:52:26;;;;;;;2.55;1.77;;;25.40;44.10;;;;;;5003954;28;93171;-91
2023/07/07 03:54:52;;;;;;;1.63;1.42;;;25.40;44.10;;;;;;4999639;28;92355;-90
2023/07/07 03:57:18;;;;;;;2.00;1.67;;;25.30;44.20;;;;;;4989433;28;94329;-90
2023/07/07 03:59:44;;;;;;;2.10;1.90;;;25.30;45.00;;;;;;4991197;28;92834;-91
2023/07/07 04:02:10;;;;;;;2.00;1.80;;;25.30;44.40;;;;;;4995675;28;100035;-90
2023/07/07 04:04:35;;;;;;;2.42;2.00;;;25.30;44.40;;;;;;4994154;28;92358;-89
2023/07/07 04:07:01;;;;;;;2.20;1.83;;;25.30;44.50;;;;;;5009967;28;95683;-90
2023/07/07 04:09:27;;;;;;;2.60;1.52;;;25.30;44.40;;;;;;4991816;28;92452;-91
2023/07/07 04:11:52;;;;;;;1.90;1.70;;;25.20;44.60;;;;;;4989423;28;93563;-90
2023/07/07 04:14:19;;;;;;;1.85;1.55;;;25.20;44.60;;;;;;4990646;28;92810;-90
2023/07/07 04:16:44;;;;;;;1.70;1.60;;;25.30;44.50;;;;;;4989761;28;95653;-91
2023/07/07 04:19:10;;;;;;;2.30;1.85;;;25.20;44.30;;;;;;4987448;28;94929;-90
2023/07/07 04:21:36;;;;;;;2.67;1.80;;;25.20;44.60;;;;;;5008206;28;92859;-90
2023/07/07 04:24:02;;;;;;;1.65;1.55;;;25.20;44.50;;;;;;4992074;28;92522;-90
2023/07/07 04:26:30;;;;;;;2.05;1.73;;;25.30;44.50;;;;;;4991358;28;94621;-91
2023/07/07 04:28:59;;;;;;;1.60;1.42;;;25.30;44.20;;;;;;4992254;28;92818;-90
2023/07/07 04:31:27;;;;;;;1.92;1.58;;;25.40;44.20;;;;;;4991792;28;94646;-90
2023/07/07 04:33:53;;;;;;;3.22;1.60;;;25.50;44.20;;;;;;4989226;28;93279;-90
2023/07/07 04:36:20;;;;;;;1.88;1.42;;;25.60;43.80;;;;;;4992268;28;96634;-91
2023/07/07 04:38:46;;;;;;;2.20;1.80;;;25.60;43.80;;;;;;4991326;28;95913;-89
2023/07/07 04:41:25;;;;;;;1.70;1.60;;;25.60;43.80;;;;;;4989766;28;92125;-89
2023/07/07 04:43:53;;;;;;;2.03;1.77;;;25.60;43.60;;;;;;4992176;28;93236;-90
2023/07/07 04:46:39;;;;;;;1.63;1.50;;;25.50;44.00;;;;;;5000691;28;95841;-90
2023/07/07 04:49:06;;;;;;;2.00;1.58;;;25.40;44.10;;;;;;4999666;28;93473;-90
2023/07/07 04:51:34;;;;;;;2.00;1.80;;;25.40;44.90;;;;;;4991569;28;93118;-91
2023/07/07 04:53:59;;;;;;;1.73;1.63;;;25.40;44.30;;;;;;4990788;28;91384;-90
2023/07/07 04:56:25;;;;;;;1.98;1.60;;;25.60;44.20;;;;;;4989785;28;94376;-90
2023/07/07 04:58:53;;;;;;;1.67;1.58;;;25.70;43.90;;;;;;4989198;28;95052;-90
2023/07/07 05:01:27;;;;;;;2.58;1.70;;;25.70;44.00;;;;;;4991866;28;93802;-90
2023/07/07 05:03:58;;;;;;;1.55;1.45;;;25.60;44.10;;;;;;4989193;28;93074;-91
2023/07/07 05:06:26;;;;;;;2.10;1.52;;;25.50;44.20;;;;;;4993742;28;93023;-93
2023/07/07 05:08:53;;;;;;;1.83;1.60;;;25.50;44.10;;;;;;4987764;28;94103;-90
2023/07/07 05:11:20;;;;;;;2.33;1.70;;;25.50;44.30;;;;;;4990026;28;92677;-89
2023/07/07 05:13:48;;;;;;;1.92;1.70;;;25.50;44.30;;;;;;4992741;28;92516;-90
2023/07/07 05:16:16;;;;;;;1.73;1.60;;;25.60;44.50;;;;;;4990070;28;95166;-90
2023/07/07 05:18:42;;;;;;;2.05;1.65;;;25.60;44.50;;;;;;4987480;28;94526;-89
2023/07/07 05:21:09;;;;;;;1.60;1.50;;;25.60;44.30;;;;;;4992146;28;92488;-89
2023/07/07 05:23:35;;;;;;;2.50;1.83;;;25.70;44.30;;;;;;4989249;28;93137;-90
2023/07/07 05:26:02;;;;;;;2.20;1.65;;;25.70;44.20;;;;;;4989059;28;96202;-90
2023/07/07 05:28:27;;;;;;;2.22;1.65;;;25.70;44.20;;;;;;4990766;28;93061;-89
2023/07/07 05:30:53;;;;;;;1.95;1.75;;;25.70;44.20;;;;;;4992556;28;92853;-91
2023/07/07 05:33:20;;;;;;;1.38;1.23;;;25.70;44.10;;;;;;4991755;28;92445;-90
2023/07/07 05:35:51;;;;;;;1.90;1.70;;;25.80;44.00;;;;;;4993789;28;95578;-91
2023/07/07 05:38:17;;;;;;;1.65;1.50;;;25.80;44.10;;;;;;4994702;28;92884;-91
2023/07/07 05:40:45;;;;;;;1.50;1.40;;;25.90;44.00;;;;;;4995429;28;92625;-90
2023/07/07 05:43:12;;;;;;;2.35;1.70;;;25.90;43.90;;;;;;4994829;28;91321;-89
2023/07/07 05:45:37;;;;;;;2.22;2.03;;;26.00;43.90;;;;;;4992177;28;94445;-91
2023/07/07 05:48:04;;;;;;;1.95;1.25;;;26.10;43.70;;;;;;4992360;28;93439;-91
2023/07/07 05:50:30;;;;;;;3.33;1.67;;;26.00;43.00;;;;;;4992550;28;93552;-87
2023/07/07 05:52:55;;;;;;;4.25;2.00;;;25.90;43.30;;;;;;4987333;28;92960;-90
2023/07/07 05:55:35;;;;;;;4.68;1.90;;;25.80;43.50;;;;;;4988650;28;96513;-88
2023/07/07 05:58:05;;;;;;;4.03;2.25;;;25.80;43.40;;;;;;4992986;28;93473;-86
2023/07/07 06:00:32;;;;;;;3.25;2.08;;;25.80;43.60;;;;;;4993431;28;93082;-86
2023/07/07 06:02:58;;;;;;;3.78;2.08;;;25.70;43.90;;;;;;4991748;28;93591;-86
2023/07/07 06:05:25;;;;;;;3.92;2.35;;;25.70;43.90;;;;;;4993318;28;93202;-86
2023/07/07 06:07:52;;;;;;;4.28;2.92;;;25.90;43.60;;;;;;4990509;28;93883;-88
2023/07/07 06:10:18;;;;;;;5.35;3.03;;;26.00;43.10;;;;;;4992550;28;92440;-87
2023/07/07 06:12:47;;;;;;;8.88;3.80;;;26.00;43.20;;;;;;4990061;28;92215;-91
2023/07/07 06:15:12;;;;;;;7.57;3.22;;;25.90;43.60;;;;;;4994449;28;96284;-91
2023/07/07 06:17:38;;;;;;;8.23;3.10;;;25.90;43.70;;;;;;4986323;28;96234;-90
2023/07/07 06:20:04;;;;;;;10.13;3.63;;;26.00;43.60;;;;;;4988148;28;92409;-91
2023/07/07 06:22:30;;;;;;;9.27;2.92;;;26.00;43.80;;;;;;4996219;28;92548;-93
2023/07/07 06:24:55;;;;;;;7.65;2.33;;;26.00;43.40;;;;;;4996100;28;93019;-92
2023/07/07 06:27:21;;;;;;;7.03;2.30;;;26.00;43.60;;;;;;4998756;28;95743;-92
2023/07/07 06:29:47;;;;;;;6.38;2.40;;;26.00;43.40;;;;;;4998102;28;93072;-91
2023/07/07 06:32:13;;;;;;;5.00;2.33;;;25.90;43.60;;;;;;5000537;28;91740;-91
2023/07/07 06:34:38;;;;;;;4.70;2.58;;;25.80;44.00;;;;;;4996416;28;96252;-90
2023/07/07 06:37:05;;;;;;;5.13;2.38;;;25.80;44.60;;;;;;4996640;28;95470;-90
2023/07/07 06:39:30;;;;;;;2.95;2.20;;;25.80;44.80;;;;;;4999604;28;94353;-92
2023/07/07 06:41:58;;;;;;;8.65;2.50;;;26.00;44.40;;;;;;4998618;28;93301;-92
2023/07/07 06:44:23;;;;;;;6.63;2.47;;;26.00;44.20;;;;;;4995828;28;95981;-90
2023/07/07 06:46:49;;;;;;;4.82;1.95;;;26.10;44.30;;;;;;4998089;28;95086;-92
2023/07/07 06:49:21;;;;;;;6.03;2.22;;;26.10;43.80;;;;;;4993004;28;92553;-91
2023/07/07 06:51:49;;;;;;;5.22;1.98;;;26.00;44.10;;;;;;4993819;28;91918;-92
2023/07/07 06:54:14;;;;;;;6.73;2.47;;;26.20;43.80;;;;;;4996408;28;93948;-93
2023/07/07 06:56:40;;;;;;;5.78;1.92;;;26.10;43.50;;;;;;4985292;28;93944;-88
2023/07/07 06:59:06;;;;;;;5.05;2.63;;;26.00;44.10;;;;;;4995072;28;92889;-90
2023/07/07 07:01:31;;;;;;;3.78;2.13;;;26.10;44.00;;;;;;4992214;28;92030;-89
2023/07/07 07:04:00;;;;;;;4.65;2.10;;;26.00;44.20;;;;;;4993172;28;96628;-88
2023/07/07 07:08:51;;;;;;;132.52;21.10;;;25.80;44.90;;;;;;4959675;27;92890;-92
2023/07/07 07:11:17;;;;;;;125.10;29.50;;;25.80;45.00;;;;;;4967005;28;93300;-89
2023/07/07 07:13:43;;;;;;;78.15;19.00;;;26.00;44.70;;;;;;4960343;28;93059;-89
2023/07/07 07:16:08;;;;;;;45.03;12.35;;;26.30;43.60;;;;;;4897051;28;95513;-92
2023/07/07 07:18:34;;;;;;;49.63;12.48;;;26.30;43.00;;;;;;4943793;28;92912;-93
2023/07/07 07:21:00;;;;;;;15.35;5.78;;;26.10;43.50;;;;;;4983678;28;92384;-93
2023/07/07 07:23:25;;;;;;;20.75;5.75;;;26.20;43.30;;;;;;4965170;28;96883;-90
2023/07/07 07:25:51;;;;;;;9.70;3.97;;;26.10;43.30;;;;;;4967327;28;92920;-89
2023/07/07 07:28:16;;;;;;;7.65;2.50;;;26.00;43.60;;;;;;4964951;28;93445;-93
2023/07/07 07:30:43;;;;;;;7.03;2.83;;;26.10;43.60;;;;;;4965201;28;93140;-90
2023/07/07 07:33:20;;;;;;;6.53;3.30;;;26.20;43.40;;;;;;4967414;28;92714;-91
2023/07/07 07:35:47;;;;;;;7.03;2.70;;;26.10;43.60;;;;;;4969466;28;92995;-90
2023/07/07 07:38:17;;;;;;;7.47;2.60;;;26.00;44.10;;;;;;4966928;28;92876;-90
2023/07/07 07:40:43;;;;;;;7.88;2.70;;;26.00;44.40;;;;;;4958686;28;92576;-93
2023/07/07 07:43:08;;;;;;;5.45;2.35;;;26.20;43.80;;;;;;4967014;28;93285;-91
2023/07/07 07:45:35;;;;;;;4.82;2.13;;;26.20;43.70;;;;;;4968527;28;93280;-89
2023/07/07 07:48:00;;;;;;;3.35;1.70;;;26.20;43.50;;;;;;4969803;28;92198;-87
2023/07/07 07:50:28;;;;;;;5.38;2.60;;;26.20;43.90;;;;;;4962761;28;93212;-89
2023/07/07 07:52:54;;;;;;;4.17;2.17;;;26.10;44.20;;;;;;4972054;28;96803;-89
2023/07/07 07:55:23;;;;;;;4.85;2.17;;;26.10;44.20;;;;;;4960739;28;95496;-89
2023/07/07 07:57:49;;;;;;;3.58;1.83;;;26.20;44.20;;;;;;4977448;28;92596;-91
2023/07/07 08:00:15;;;;;;;4.82;2.10;;;26.20;44.40;;;;;;4979666;28;92540;-89
2023/07/07 08:02:40;;;;;;;6.05;2.20;;;26.30;44.50;;;;;;4978935;28;95995;-89
2023/07/07 08:05:07;;;;;;;4.03;2.00;;;26.30;44.50;;;;;;4971718;28;95021;-89
2023/07/07 08:07:33;;;;;;;9.30;3.03;;;26.20;44.60;;;;;;4976335;28;92141;-89
2023/07/07 08:09:58;;;;;;;9.88;2.92;;;26.30;44.60;;;;;;4978887;28;92009;-89
2023/07/07 08:12:24;;;;;;;16.50;3.95;;;26.30;44.60;;;;;;4974017;28;95594;-89
2023/07/07 08:14:50;;;;;;;9.25;3.50;;;26.30;44.90;;;;;;4977342;28;95336;-89
2023/07/07 08:17:17;;;;;;;13.55;4.07;;;26.30;45.00;;;;;;4975548;28;93740;-89
2023/07/07 08:19:44;;;;;;;9.57;3.95;;;26.20;45.30;;;;;;4974676;28;92806;-90
2023/07/07 08:22:16;;;;;;;6.20;2.83;;;26.20;45.40;;;;;;4979679;28;95959;-92
2023/07/07 08:24:48;;;;;;;5.72;2.42;;;26.30;45.50;;;;;;4964227;28;95620;-91
2023/07/07 08:27:14;;;;;;;5.10;2.60;;;26.40;45.30;;;;;;4980167;28;92882;-91
2023/07/07 08:29:41;;;;;;;3.78;2.30;;;26.40;45.20;;;;;;4981686;28;92550;-91
2023/07/07 08:32:09;;;;;;;10.52;3.50;;;26.40;45.10;;;;;;4979668;28;95803;-94
2023/07/07 08:34:34;;;;;;;7.50;2.85;;;26.30;45.20;;;;;;4981482;28;91934;-91
2023/07/07 08:37:00;;;;;;;6.38;2.88;;;26.40;45.30;;;;;;4981628;28;92488;-92
2023/07/07 08:39:29;;;;;;;8.45;3.10;;;26.40;45.10;;;;;;4993630;28;92849;-91
2023/07/07 08:42:00;;;;;;;4.90;2.38;;;26.40;45.10;;;;;;4975239;28;95075;-92
2023/07/07 08:44:28;;;;;;;6.68;1.92;;;26.40;45.10;;;;;;4975471;28;94213;-90
2023/07/07 08:47:25;;;;;;;3.93;2.50;;;26.50;44.70;;;;;;4975264;28;92601;-89
2023/07/07 08:50:06;;;;;;;3.30;2.20;;;26.50;44.60;;;;;;4973978;28;92360;-89
2023/07/07 08:52:45;;;;;;;2.58;1.77;;;26.40;44.40;;;;;;4975252;28;93204;-90
2023/07/07 08:55:10;;;;;;;;;;;26.40;44.50;;;;;;4978205;28;94294;-89
2023/07/07 08:57:45;;;;;;;5.55;2.40;;;26.40;44.80;;;;;;4980005;28;92049;-89
2023/07/07 09:00:20;;;;;;;4.00;2.63;;;26.50;44.80;;;;;;4978962;28;92420;-89
2023/07/07 09:03:15;;;;;;;8.10;2.47;;;26.50;44.90;;;;;;4977946;28;94067;-90
2023/07/07 09:05:54;;;;;;;4.78;2.20;;;26.50;45.70;;;;;;4980180;28;92781;-89
2023/07/07 09:08:52;;;;;;;5.38;2.40;;;26.60;45.50;;;;;;4982052;28;93856;-90
2023/07/07 09:11:17;;;;;;;4.43;2.08;;;26.50;45.40;;;;;;4982248;28;92509;-92
2023/07/07 09:13:49;;;;;;;3.63;2.35;;;26.50;45.20;;;;;;4975177;28;93978;-92
2023/07/07 09:16:14;;;;;;;4.88;2.00;;;26.50;45.30;;;;;;4962760;28;93833;-89
2023/07/07 09:18:47;;;;;;;3.90;2.08;;;26.50;44.80;;;;;;4980209;28;92564;-92
2023/07/07 09:21:33;;;;;;;4.72;2.15;;;26.60;44.90;;;;;;4972128;28;92772;-92
2023/07/07 09:24:07;;;;;;;6.03;2.05;;;26.60;44.80;;;;;;4960195;28;94800;-91
2023/07/07 09:26:34;;;;;;;10.25;2.50;;;26.70;44.70;;;;;;4961803;28;93645;-88
2023/07/07 09:29:03;;;;;;;9.00;2.50;;;26.70;43.60;;;;;;4961717;28;92494;-89
2023/07/07 09:31:41;;;;;;;6.97;2.47;;;26.70;43.20;;;;;;4974068;28;92558;-95
2023/07/07 09:34:12;;;;;;;14.73;2.40;;;26.70;43.00;;;;;;4981044;28;96509;-92
2023/07/07 09:37:21;;;;;;;5.38;2.00;;;26.70;43.20;;;;;;4978540;28;95119;-93
2023/07/07 09:40:25;;;;;;;9.23;3.00;;;26.70;43.90;;;;;;4953226;28;92292;-91
2023/07/07 09:43:16;;;;;;;5.90;2.53;;;26.70;44.30;;;;;;4970167;28;92460;-92
2023/07/07 09:46:02;;;;;;;4.60;2.08;;;26.70;44.90;;;;;;4966173;28;94810;-93
2023/07/07 09:49:15;;;;;;;4.13;2.30;;;26.70;45.80;;;;;;4985297;28;94311;-93
2023/07/07 09:52:02;;;;;;;5.03;2.60;;;26.70;46.30;;;;;;4940922;28;92424;-90
2023/07/07 09:54:30;;;;;;;5.75;2.85;;;26.80;46.00;;;;;;4935833;28;91867;-90
2023/07/07 09:57:03;;;;;;;9.67;3.00;;;26.80;45.40;;;;;;4958381;28;95613;-89
2023/07/07 09:59:36;;;;;;;7.45;2.75;;;26.80;45.40;;;;;;4967846;28;93822;-87
2023/07/07 10:02:11;;;;;;;6.93;2.90;;;26.60;45.30;;;;;;4963883;28;93017;-89
2023/07/07 10:04:37;;;;;;;5.13;2.60;;;26.60;45.50;;;;;;4962847;28;92561;-90
2023/07/07 10:07:07;;;;;;;5.20;2.47;;;26.60;45.50;;;;;;4964413;28;95461;-88
2023/07/07 10:09:33;;;;;;;7.55;2.30;;;26.50;45.60;;;;;;4964314;28;95524;-89
2023/07/07 10:11:59;;;;;;;6.35;3.00;;;26.50;45.70;;;;;;4965598;28;92420;-89
2023/07/07 10:14:28;;;;;;;4.82;2.83;;;26.50;45.70;;;;;;4963058;28;92288;-89
2023/07/07 10:17:16;;;;;;;6.07;2.33;;;26.50;45.90;;;;;;4963237;28;92993;-92
2023/07/07 10:19:53;;;;;;;4.65;2.38;;;26.40;45.60;;;;;;4964753;28;95458;-88
2023/07/07 10:22:20;;;;;;;3.22;2.20;;;26.40;45.60;;;;;;4967909;28;92681;-88
2023/07/07 10:24:46;;;;;;;4.97;2.00;;;26.50;45.30;;;;;;4954468;28;92413;-90
2023/07/07 10:27:17;;;;;;;9.55;2.67;;;26.50;45.40;;;;;;4953893;28;95135;-90
2023/07/07 10:29:43;;;;;;;3.55;2.42;;;26.50;45.40;;;;;;4958980;28;95916;-90
2023/07/07 10:32:15;;;;;;;8.65;2.80;;;26.60;45.10;;;;;;4955004;28;93129;-90
2023/07/07 10:34:47;;;;;;;4.25;2.30;;;26.60;45.10;;;;;;4952483;28;92697;-89
2023/07/07 10:37:22;;;;;;;4.55;2.45;;;26.50;45.00;;;;;;4950698;28;95933;-89
2023/07/07 10:39:56;;;;;;;4.47;2.38;;;26.50;44.70;;;;;;4953654;28;94887;-90
2023/07/07 10:42:23;;;;;;;5.45;2.42;;;26.60;44.50;;;;;;4970042;28;92600;-89
2023/07/07 10:44:50;;;;;;;6.43;2.40;;;26.60;44.40;;;;;;4955360;28;91847;-91
2023/07/07 10:47:21;;;;;;;4.07;2.05;;;26.60;44.20;;;;;;4968057;28;92883;-89
2023/07/07 10:49:47;;;;;;;6.18;2.30;;;26.60;44.10;;;;;;4967139;28;94297;-89
2023/07/07 10:52:38;;;;;;;5.38;2.35;;;26.50;44.20;;;;;;4961853;28;93103;-90
2023/07/07 10:55:26;;;;;;;5.32;2.75;;;26.60;44.10;;;;;;4963027;28;92119;-89
2023/07/07 10:58:03;;;;;;;2.95;2.53;;;26.60;44.10;;;;;;4963655;28;94977;-91
2023/07/07 11:00:35;;;;;;;5.57;2.70;;;26.50;43.80;;;;;;4963384;28;92811;-89
2023/07/07 11:03:13;;;;;;;5.85;3.00;;;26.60;43.90;;;;;;4956531;28;92316;-89
2023/07/07 11:06:07;;;;;;;2.90;1.98;;;26.60;43.60;;;;;;4961386;28;92906;-91
2023/07/07 11:08:51;;;;;;;3.08;2.05;;;26.60;43.60;;;;;;4963198;28;92975;-89
2023/07/07 11:12:01;;;;;;;3.28;2.50;;;26.60;43.80;;;;;;4963680;28;95548;-88
2023/07/07 11:14:49;;;;;;;5.10;2.38;;;26.50;43.60;;;;;;4962489;28;92594;-89
2023/07/07 11:17:53;;;;;;;3.95;2.03;;;26.50;43.40;;;;;;4949518;28;99317;-90
2023/07/07 11:20:34;;;;;;;5.20;2.35;;;26.50;43.60;;;;;;4974786;28;93923;-89
2023/07/07 11:23:03;;;;;;;3.30;2.20;;;26.50;43.50;;;;;;4967756;28;95821;-88
2023/07/07 11:25:38;;;;;;;;;;;26.50;43.40;;;;;;4957282;28;92433;-91
2023/07/07 11:28:25;;;;;;;3.22;2.22;;;26.50;43.40;;;;;;4963546;28;92334;-89
2023/07/07 11:30:51;;;;;;;2.67;2.00;;;26.50;43.20;;;;;;4955325;28;93274;-89
2023/07/07 11:33:22;;;;;;;3.67;2.55;;;26.60;43.30;;;;;;4965459;28;94099;-89
2023/07/07 11:36:03;;;;;;;5.63;2.80;;;26.50;43.10;;;;;;4963763;28;92702;-90
2023/07/07 11:38:49;;;;;;;2.97;2.60;;;26.50;43.10;;;;;;4963443;28;92448;-89
2023/07/07 11:41:36;;;;;;;4.28;2.83;;;26.50;43.00;;;;;;4961122;28;95533;-89
2023/07/07 11:44:27;;;;;;;3.67;2.45;;;26.60;43.00;;;;;;4962479;28;92946;-91
2023/07/07 11:47:16;;;;;;;2.70;2.30;;;26.60;43.10;;;;;;4962082;28;93415;-90
2023/07/07 11:50:15;;;;;;;3.20;2.15;;;26.60;42.90;;;;;;4963490;28;92555;-89
2023/07/07 11:52:47;;;;;;;4.85;2.38;;;26.60;42.80;;;;;;4949647;28;95643;-90
2023/07/07 11:55:22;;;;;;;5.32;3.03;;;26.60;42.50;;;;;;4959914;28;95188;-89
2023/07/07 11:58:06;;;;;;;5.95;2.58;;;26.60;42.40;;;;;;4959811;28;92808;-89
2023/07/07 12:00:47;;;;;;;3.90;2.58;;;26.50;42.10;;;;;;4956442;28;92665;-88
2023/07/07 12:03:28;;;;;;;2.83;2.38;;;26.50;42.30;;;;;;4955315;28;97363;-90
2023/07/07 12:05:55;;;;;;;5.28;2.63;;;26.50;42.30;;;;;;4985227;28;94320;-90
2023/07/07 12:08:26;;;;;;;3.40;2.80;;;26.40;42.50;;;;;;4964989;28;92881;-89
2023/07/07 12:10:57;;;;;;;5.25;2.90;;;26.50;42.30;;;;;;4961885;28;92528;-89
2023/07/07 12:13:28;;;;;;;3.60;2.42;;;26.50;42.30;;;;;;4962142;28;93834;-89
2023/07/07 12:16:20;;;;;;;2.55;2.35;;;26.50;42.30;;;;;;4969728;28;95983;-90
2023/07/07 12:18:51;;;;;;;3.78;2.33;;;26.50;42.30;;;;;;4962343;28;92174;-87
2023/07/07 12:21:23;;;;;;;3.45;2.60;;;26.50;42.20;;;;;;4970274;28;92705;-89
2023/07/07 12:24:15;;;;;;;2.90;2.58;;;26.50;41.90;;;;;;4960796;28;96007;-88
2023/07/07 12:27:08;;;;;;;3.63;2.80;;;26.60;41.90;;;;;;4960698;28;94854;-90
2023/07/07 12:29:38;;;;;;;4.05;2.90;;;26.60;41.70;;;;;;4962354;28;92813;-90
2023/07/07 12:32:04;;;;;;;2.67;2.22;;;26.50;41.80;;;;;;4964516;28;91884;-90
2023/07/07 12:34:39;;;;;;;3.00;2.28;;;26.60;41.50;;;;;;4961850;28;94713;-89
2023/07/07 12:37:14;;;;;;;2.72;2.25;;;26.60;41.40;;;;;;4960058;28;94301;-89
2023/07/07 12:40:06;;;;;;;3.40;2.42;;;26.60;41.40;;;;;;4959690;28;93165;-89
2023/07/07 12:42:33;;;;;;;5.18;3.05;;;26.60;41.30;;;;;;4964295;28;92332;-90
2023/07/07 12:45:28;;;;;;;2.92;2.42;;;26.60;41.20;;;;;;4961870;28;94353;-91
2023/07/07 12:48:03;;;;;;;4.90;2.90;;;26.60;41.60;;;;;;4961366;28;93073;-89
2023/07/07 12:50:39;;;;;;;4.05;2.65;;;26.60;41.50;;;;;;4959576;28;92498;-88
2023/07/07 12:53:11;;;;;;;4.82;2.75;;;26.60;41.30;;;;;;4960556;28;93183;-90
2023/07/07 12:55:39;;;;;;;4.50;2.70;;;26.60;41.30;;;;;;4962284;28;93298;-91
2023/07/07 12:58:10;;;;;;;4.60;2.60;;;26.60;41.40;;;;;;4961664;28;92787;-90
2023/07/07 13:00:41;;;;;;;4.47;3.10;;;26.60;41.40;;;;;;4961736;28;92420;-88
2023/07/07 13:03:09;;;;;;;4.75;3.08;;;26.60;41.40;;;;;;4960657;28;92852;-89
2023/07/07 13:05:49;;;;;;;4.78;3.00;;;26.60;41.40;;;;;;4959908;28;97329;-89
2023/07/07 13:08:38;;;;;;;4.43;2.67;;;26.50;41.40;;;;;;4951228;28;96470;-87